sensor_id;sensor_type;location;lat;lon;timestamp;P1;durP1;ratioP1;P2;durP2;ratioP2
22515;SDS011;11424;48.860;9.624;2023-12-29T00:04:59;17.8;;;29.7;;
22515;SDS011;11424;48.860;9.624;2023-12-29T00:09:59;6;;;6.4;;
22515;SDS011;11424;48.860;9.624;2023-12-29T00:14:59;20.5;;;32.6;;
22515;SDS011;11424;48.860;9.624;2023-12-29T00:19:59;19.9;;;31.8;;
22515;SDS011;11424;48.860;9.624;2023-12-29T00:24:59;27.6;;;36.5;;
22515;SDS011;11424;48.860;9.624;2023-12-29T00:29:59;71.3;;;79.3;;
22515;SDS011;11424;48.860;9.624;2023-12-29T00:34:59;74.5;;;82.4;;
22515;SDS011;11424;48.860;9.624;2023-12-29T00:39:59;74;;;81.8;;
22515;SDS011;11424;48.860;9.624;2023-12-29T00:44:59;71.8;;;80;;
22515;SDS011;11424;48.860;9.624;2023-12-29T00:49:59;67.1;;;74.8;;
22515;SDS011;11424;48.860;9.624;2023-12-29T00:54:59;49.8;;;52.7;;
22515;SDS011;11424;48.860;9.624;2023-12-29T01:00:00;52.9;;;56.2;;
22515;SDS011;11424;48.860;9.624;2023-12-29T01:04:59;50.1;;;53.1;;
22515;SDS011;11424;48.860;9.624;2023-12-29T01:09:59;51.9;;;55.1;;
22515;SDS011;11424;48.860;9.624;2023-12-29T01:14:59;63.3;;;70.5;;
22515;SDS011;11424;48.860;9.624;2023-12-29T01:19:59;63.8;;;70.8;;
22515;SDS011;11424;48.860;9.624;2023-12-29T01:24:59;84;;;93.2;;
22515;SDS011;11424;48.860;9.624;2023-12-29T01:29:59;77.9;;;86.4;;
22515;SDS011;11424;48.860;9.624;2023-12-29T01:34:59;66.9;;;73.6;;
22515;SDS011;11424;48.860;9.624;2023-12-29T01:39:59;53.8;;;57.6;;
22515;SDS011;11424;48.860;9.624;2023-12-29T01:44:59;52.9;;;56.6;;
22515;SDS011;11424;48.860;9.624;2023-12-29T01:49:59;55;;;59.2;;
22515;SDS011;11424;48.860;9.624;2023-12-29T01:54:59;68.5;;;75.6;;
22515;SDS011;11424;48.860;9.624;2023-12-29T01:59:59;82.5;;;91.6;;
22515;SDS011;11424;48.860;9.624;2023-12-29T02:04:59;81.5;;;90.3;;
22515;SDS011;11424;48.860;9.624;2023-12-29T02:09:59;86.6;;;96.2;;
22515;SDS011;11424;48.860;9.624;2023-12-29T02:14:59;78.4;;;86.7;;
22515;SDS011;11424;48.860;9.624;2023-12-29T02:19:59;57.3;;;62;;
22515;SDS011;11424;48.860;9.624;2023-12-29T02:24:59;56.7;;;61.1;;
22515;SDS011;11424;48.860;9.624;2023-12-29T02:30:02;60;;;64.4;;
22515;SDS011;11424;48.860;9.624;2023-12-29T02:34:59;83.4;;;92.8;;
22515;SDS011;11424;48.860;9.624;2023-12-29T02:39:59;78.1;;;86.6;;
22515;SDS011;11424;48.860;9.624;2023-12-29T02:44:59;81.8;;;90.6;;
22515;SDS011;11424;48.860;9.624;2023-12-29T02:49:59;90;;;100.2;;
22515;SDS011;11424;48.860;9.624;2023-12-29T02:54:59;80.9;;;89.5;;
22515;SDS011;11424;48.860;9.624;2023-12-29T02:59:59;80.8;;;89.5;;
22515;SDS011;11424;48.860;9.624;2023-12-29T03:04:59;67.6;;;74.8;;
22515;SDS011;11424;48.860;9.624;2023-12-29T03:09:59;67.4;;;74.6;;
22515;SDS011;11424;48.860;9.624;2023-12-29T03:15:00;79.8;;;88.3;;
22515;SDS011;11424;48.860;9.624;2023-12-29T03:20:00;83.9;;;92.8;;
22515;SDS011;11424;48.860;9.624;2023-12-29T03:24:59;87.1;;;96.6;;
22515;SDS011;11424;48.860;9.624;2023-12-29T03:29:59;80.7;;;89;;
22515;SDS011;11424;48.860;9.624;2023-12-29T03:34:59;81.5;;;89.9;;
22515;SDS011;11424;48.860;9.624;2023-12-29T03:39:59;71.6;;;79;;
22515;SDS011;11424;48.860;9.624;2023-12-29T03:44:59;75;;;83.2;;
22515;SDS011;11424;48.860;9.624;2023-12-29T03:49:59;57.2;;;61.7;;
22515;SDS011;11424;48.860;9.624;2023-12-29T03:55:00;74.6;;;82.9;;
22515;SDS011;11424;48.860;9.624;2023-12-29T04:00:00;62.4;;;69.9;;
22515;SDS011;11424;48.860;9.624;2023-12-29T04:05:00;16.9;;;25.4;;
22515;SDS011;11424;48.860;9.624;2023-12-29T04:10:00;19.3;;;29.9;;
22515;SDS011;11424;48.860;9.624;2023-12-29T04:15:00;20.1;;;30.3;;
22515;SDS011;11424;48.860;9.624;2023-12-29T04:20:00;20.9;;;32.9;;
22515;SDS011;11424;48.860;9.624;2023-12-29T04:24:59;17.9;;;28.1;;
22515;SDS011;11424;48.860;9.624;2023-12-29T04:30:00;19.3;;;30;;
22515;SDS011;11424;48.860;9.624;2023-12-29T04:35:00;17.3;;;29.1;;
22515;SDS011;11424;48.860;9.624;2023-12-29T04:40:00;17.6;;;28.5;;
22515;SDS011;11424;48.860;9.624;2023-12-29T04:45:00;17.8;;;30.8;;
22515;SDS011;11424;48.860;9.624;2023-12-29T04:50:00;16.7;;;27.1;;
22515;SDS011;11424;48.860;9.624;2023-12-29T04:55:00;17.9;;;28.8;;
22515;SDS011;11424;48.860;9.624;2023-12-29T05:00:00;13.2;;;20.2;;
22515;SDS011;11424;48.860;9.624;2023-12-29T05:05:00;18.4;;;31;;
22515;SDS011;11424;48.860;9.624;2023-12-29T05:10:00;19.1;;;33.7;;
22515;SDS011;11424;48.860;9.624;2023-12-29T05:15:00;14.2;;;20.7;;
22515;SDS011;11424;48.860;9.624;2023-12-29T05:20:00;7.9;;;8.4;;
22515;SDS011;11424;48.860;9.624;2023-12-29T05:25:00;7.9;;;8.5;;
22515;SDS011;11424;48.860;9.624;2023-12-29T05:30:00;6.4;;;6.8;;
22515;SDS011;11424;48.860;9.624;2023-12-29T05:35:00;17.2;;;27.4;;
22515;SDS011;11424;48.860;9.624;2023-12-29T05:40:00;21.2;;;39.8;;
22515;SDS011;11424;48.860;9.624;2023-12-29T05:45:00;20;;;34;;
22515;SDS011;11424;48.860;9.624;2023-12-29T05:50:00;25.5;;;46.4;;
22515;SDS011;11424;48.860;9.624;2023-12-29T05:55:00;20.2;;;31.9;;
22515;SDS011;11424;48.860;9.624;2023-12-29T06:00:00;9.4;;;10.1;;
22515;SDS011;11424;48.860;9.624;2023-12-29T06:05:00;6.9;;;7.4;;
22515;SDS011;11424;48.860;9.624;2023-12-29T06:10:00;8;;;8.5;;
22515;SDS011;11424;48.860;9.624;2023-12-29T06:15:00;21.6;;;38.7;;
22515;SDS011;11424;48.860;9.624;2023-12-29T06:20:00;21.7;;;38.2;;
22515;SDS011;11424;48.860;9.624;2023-12-29T06:25:00;18.5;;;30.2;;
22515;SDS011;11424;48.860;9.624;2023-12-29T06:30:00;60.8;;;68.6;;
22515;SDS011;11424;48.860;9.624;2023-12-29T06:35:00;81.4;;;90.5;;
22515;SDS011;11424;48.860;9.624;2023-12-29T06:40:00;97.9;;;109.5;;
22515;SDS011;11424;48.860;9.624;2023-12-29T06:45:00;70.8;;;78.7;;
22515;SDS011;11424;48.860;9.624;2023-12-29T06:50:00;70.6;;;78.1;;
22515;SDS011;11424;48.860;9.624;2023-12-29T06:55:00;75.4;;;84;;
22515;SDS011;11424;48.860;9.624;2023-12-29T07:00:00;67;;;75.2;;
22515;SDS011;11424;48.860;9.624;2023-12-29T07:05:00;66.8;;;77.1;;
22515;SDS011;11424;48.860;9.624;2023-12-29T07:10:00;65.7;;;73.5;;
22515;SDS011;11424;48.860;9.624;2023-12-29T07:15:00;63.1;;;71.2;;
22515;SDS011;11424;48.860;9.624;2023-12-29T07:20:00;64.3;;;74.4;;
22515;SDS011;11424;48.860;9.624;2023-12-29T07:25:00;62.3;;;76.7;;
22515;SDS011;11424;48.860;9.624;2023-12-29T07:30:00;24.1;;;25.5;;
22515;SDS011;11424;48.860;9.624;2023-12-29T07:35:00;31.6;;;50.7;;
22515;SDS011;11424;48.860;9.624;2023-12-29T07:40:00;29.1;;;50.9;;
22515;SDS011;11424;48.860;9.624;2023-12-29T07:45:00;26.3;;;45.9;;
22515;SDS011;11424;48.860;9.624;2023-12-29T07:50:00;25.3;;;47.1;;
22515;SDS011;11424;48.860;9.624;2023-12-29T07:55:00;25.6;;;47.1;;
22515;SDS011;11424;48.860;9.624;2023-12-29T08:00:00;32.5;;;60.5;;
22515;SDS011;11424;48.860;9.624;2023-12-29T08:05:00;28.7;;;53;;
22515;SDS011;11424;48.860;9.624;2023-12-29T08:10:00;25.2;;;46.9;;
22515;SDS011;11424;48.860;9.624;2023-12-29T08:15:00;28.6;;;50.8;;
22515;SDS011;11424;48.860;9.624;2023-12-29T08:20:00;59.3;;;115;;
22515;SDS011;11424;48.860;9.624;2023-12-29T08:25:00;50.1;;;98.5;;
22515;SDS011;11424;48.860;9.624;2023-12-29T08:30:00;45.2;;;86.3;;
22515;SDS011;11424;48.860;9.624;2023-12-29T08:35:00;51.5;;;97.6;;
22515;SDS011;11424;48.860;9.624;2023-12-29T08:40:00;54.7;;;102.8;;
22515;SDS011;11424;48.860;9.624;2023-12-29T08:45:00;44.3;;;81.6;;
22515;SDS011;11424;48.860;9.624;2023-12-29T08:50:00;38.1;;;72.3;;
22515;SDS011;11424;48.860;9.624;2023-12-29T08:55:00;37.1;;;58.7;;
22515;SDS011;11424;48.860;9.624;2023-12-29T09:00:00;22;;;23.6;;
22515;SDS011;11424;48.860;9.624;2023-12-29T09:05:00;16.1;;;17.2;;
22515;SDS011;11424;48.860;9.624;2023-12-29T09:10:00;12.9;;;13.7;;
22515;SDS011;11424;48.860;9.624;2023-12-29T09:15:00;49.4;;;92.5;;
22515;SDS011;11424;48.860;9.624;2023-12-29T09:20:00;34.6;;;60.6;;
22515;SDS011;11424;48.860;9.624;2023-12-29T09:25:00;40.6;;;80.3;;
22515;SDS011;11424;48.860;9.624;2023-12-29T09:30:00;45.5;;;88.8;;
22515;SDS011;11424;48.860;9.624;2023-12-29T09:35:00;50.9;;;98.4;;
22515;SDS011;11424;48.860;9.624;2023-12-29T09:40:00;11;;;11.7;;
22515;SDS011;11424;48.860;9.624;2023-12-29T09:45:00;11.5;;;12.3;;
22515;SDS011;11424;48.860;9.624;2023-12-29T09:50:00;17;;;18.2;;
22515;SDS011;11424;48.860;9.624;2023-12-29T09:55:00;48.3;;;91.4;;
22515;SDS011;11424;48.860;9.624;2023-12-29T10:00:00;36.2;;;64.1;;
22515;SDS011;11424;48.860;9.624;2023-12-29T10:05:00;32.6;;;57.1;;
22515;SDS011;11424;48.860;9.624;2023-12-29T10:10:00;48;;;85.9;;
22515;SDS011;11424;48.860;9.624;2023-12-29T10:15:03;44.9;;;83;;
22515;SDS011;11424;48.860;9.624;2023-12-29T10:20:02;34.2;;;62.5;;
22515;SDS011;11424;48.860;9.624;2023-12-29T10:25:00;10.9;;;11.6;;
22515;SDS011;11424;48.860;9.624;2023-12-29T10:30:00;16;;;17;;
22515;SDS011;11424;48.860;9.624;2023-12-29T10:35:07;39.9;;;72.6;;
22515;SDS011;11424;48.860;9.624;2023-12-29T10:40:00;37.1;;;71.2;;
22515;SDS011;11424;48.860;9.624;2023-12-29T10:45:08;34.6;;;58.6;;
22515;SDS011;11424;48.860;9.624;2023-12-29T10:50:00;42.7;;;76.2;;
22515;SDS011;11424;48.860;9.624;2023-12-29T10:55:04;47;;;86.7;;
22515;SDS011;11424;48.860;9.624;2023-12-29T11:00:00;36.1;;;72;;
22515;SDS011;11424;48.860;9.624;2023-12-29T11:05:02;35.5;;;65.1;;
22515;SDS011;11424;48.860;9.624;2023-12-29T11:10:00;17.1;;;18.2;;
22515;SDS011;11424;48.860;9.624;2023-12-29T11:15:01;33.4;;;62.3;;
22515;SDS011;11424;48.860;9.624;2023-12-29T11:20:00;34;;;65.6;;
22515;SDS011;11424;48.860;9.624;2023-12-29T11:25:00;33.8;;;62;;
22515;SDS011;11424;48.860;9.624;2023-12-29T11:30:01;44.1;;;82.9;;
22515;SDS011;11424;48.860;9.624;2023-12-29T11:35:03;24.6;;;46.1;;
22515;SDS011;11424;48.860;9.624;2023-12-29T11:40:04;32.1;;;59.4;;
22515;SDS011;11424;48.860;9.624;2023-12-29T11:45:03;26.7;;;48.1;;
22515;SDS011;11424;48.860;9.624;2023-12-29T11:50:00;39.2;;;70.6;;
22515;SDS011;11424;48.860;9.624;2023-12-29T11:55:10;34.3;;;64.1;;
22515;SDS011;11424;48.860;9.624;2023-12-29T12:00:00;35.5;;;68.3;;
22515;SDS011;11424;48.860;9.624;2023-12-29T12:05:00;36.9;;;65;;
22515;SDS011;11424;48.860;9.624;2023-12-29T12:10:18;37.7;;;66.5;;
22515;SDS011;11424;48.860;9.624;2023-12-29T12:15:00;41.6;;;77.7;;
22515;SDS011;11424;48.860;9.624;2023-12-29T12:20:01;23.3;;;41.4;;
22515;SDS011;11424;48.860;9.624;2023-12-29T12:25:00;26.8;;;47.8;;
22515;SDS011;11424;48.860;9.624;2023-12-29T12:30:00;36.8;;;63;;
22515;SDS011;11424;48.860;9.624;2023-12-29T12:35:00;31.7;;;52.7;;
22515;SDS011;11424;48.860;9.624;2023-12-29T12:40:00;8.1;;;8.7;;
22515;SDS011;11424;48.860;9.624;2023-12-29T12:45:03;6.6;;;7;;
22515;SDS011;11424;48.860;9.624;2023-12-29T12:50:00;9.2;;;9.7;;
22515;SDS011;11424;48.860;9.624;2023-12-29T12:55:00;40.2;;;76.9;;
22515;SDS011;11424;48.860;9.624;2023-12-29T13:00:00;26.6;;;46.6;;
22515;SDS011;11424;48.860;9.624;2023-12-29T13:05:00;22;;;38.8;;
22515;SDS011;11424;48.860;9.624;2023-12-29T13:10:00;31.2;;;57.9;;
22515;SDS011;11424;48.860;9.624;2023-12-29T13:15:08;32;;;55.2;;
22515;SDS011;11424;48.860;9.624;2023-12-29T13:20:00;6.3;;;6.7;;
22515;SDS011;11424;48.860;9.624;2023-12-29T13:25:00;5.6;;;6;;
22515;SDS011;11424;48.860;9.624;2023-12-29T13:30:00;11.4;;;12.1;;
22515;SDS011;11424;48.860;9.624;2023-12-29T13:35:02;32.2;;;59.2;;
22515;SDS011;11424;48.860;9.624;2023-12-29T13:40:02;16.5;;;28.1;;
22515;SDS011;11424;48.860;9.624;2023-12-29T13:45:00;20.4;;;34.8;;
22515;SDS011;11424;48.860;9.624;2023-12-29T13:50:00;24.9;;;44;;
22515;SDS011;11424;48.860;9.624;2023-12-29T13:55:00;28.6;;;52.7;;
22515;SDS011;11424;48.860;9.624;2023-12-29T14:00:13;29.6;;;46.9;;
22515;SDS011;11424;48.860;9.624;2023-12-29T14:05:18;4;;;4.2;;
22515;SDS011;11424;48.860;9.624;2023-12-29T14:10:00;5.9;;;6.2;;
22515;SDS011;11424;48.860;9.624;2023-12-29T14:15:02;31.5;;;57.4;;
22515;SDS011;11424;48.860;9.624;2023-12-29T14:20:00;19.4;;;32.5;;
22515;SDS011;11424;48.860;9.624;2023-12-29T14:25:01;18.5;;;32.5;;
22515;SDS011;11424;48.860;9.624;2023-12-29T14:30:00;25.1;;;43.6;;
22515;SDS011;11424;48.860;9.624;2023-12-29T14:35:00;29.4;;;56.3;;
22515;SDS011;11424;48.860;9.624;2023-12-29T14:39:51;16.1;;;17.5;;
22515;SDS011;11424;48.860;9.624;2023-12-29T14:44:51;3.6;;;3.8;;
22515;SDS011;11424;48.860;9.624;2023-12-29T14:49:51;6.9;;;7.5;;
22515;SDS011;11424;48.860;9.624;2023-12-29T14:54:51;9.2;;;9.9;;
22515;SDS011;11424;48.860;9.624;2023-12-29T14:59:51;3.9;;;4.2;;
22515;SDS011;11424;48.860;9.624;2023-12-29T15:04:51;3.1;;;3.3;;
22515;SDS011;11424;48.860;9.624;2023-12-29T15:09:51;4.8;;;5.2;;
22515;SDS011;11424;48.860;9.624;2023-12-29T15:14:51;6.5;;;6.9;;
22515;SDS011;11424;48.860;9.624;2023-12-29T15:19:51;2.5;;;2.7;;
22515;SDS011;11424;48.860;9.624;2023-12-29T15:21:23;10.5;;;11.7;;
22515;SDS011;11424;48.860;9.624;2023-12-29T15:26:23;3.1;;;3.3;;
22515;SDS011;11424;48.860;9.624;2023-12-29T15:31:23;3.1;;;3.5;;
22515;SDS011;11424;48.860;9.624;2023-12-29T15:36:23;3.5;;;3.8;;
22515;SDS011;11424;48.860;9.624;2023-12-29T15:41:23;3.2;;;3.4;;
22515;SDS011;11424;48.860;9.624;2023-12-29T15:46:23;4.1;;;4.4;;
22515;SDS011;11424;48.860;9.624;2023-12-29T15:51:23;2.1;;;2.2;;
22515;SDS011;11424;48.860;9.624;2023-12-29T15:56:23;4.3;;;4.7;;
22515;SDS011;11424;48.860;9.624;2023-12-29T16:01:24;2.2;;;2.3;;
22515;SDS011;11424;48.860;9.624;2023-12-29T16:06:24;3.5;;;3.8;;
22515;SDS011;11424;48.860;9.624;2023-12-29T16:11:24;2.2;;;2.3;;
22515;SDS011;11424;48.860;9.624;2023-12-29T16:16:24;1.7;;;1.8;;
22515;SDS011;11424;48.860;9.624;2023-12-29T16:21:23;1.5;;;1.6;;
22515;SDS011;11424;48.860;9.624;2023-12-29T16:26:23;4;;;4.4;;
22515;SDS011;11424;48.860;9.624;2023-12-29T16:31:23;3.8;;;4.1;;
22515;SDS011;11424;48.860;9.624;2023-12-29T16:36:23;2.4;;;2.6;;
22515;SDS011;11424;48.860;9.624;2023-12-29T16:41:23;2.1;;;2.2;;
22515;SDS011;11424;48.860;9.624;2023-12-29T16:46:23;3.3;;;3.5;;
22515;SDS011;11424;48.860;9.624;2023-12-29T16:51:24;1.7;;;1.8;;
22515;SDS011;11424;48.860;9.624;2023-12-29T16:56:23;3.2;;;3.5;;
22515;SDS011;11424;48.860;9.624;2023-12-29T17:01:23;2.5;;;2.7;;
22515;SDS011;11424;48.860;9.624;2023-12-29T17:06:24;1.5;;;1.9;;
22515;SDS011;11424;48.860;9.624;2023-12-29T17:11:24;1.6;;;1.7;;
22515;SDS011;11424;48.860;9.624;2023-12-29T17:16:23;1.4;;;1.5;;
22515;SDS011;11424;48.860;9.624;2023-12-29T17:21:24;1.2;;;1.3;;
22515;SDS011;11424;48.860;9.624;2023-12-29T17:26:24;1.7;;;1.8;;
22515;SDS011;11424;48.860;9.624;2023-12-29T17:31:24;1.3;;;1.4;;
22515;SDS011;11424;48.860;9.624;2023-12-29T17:36:24;1.5;;;1.6;;
22515;SDS011;11424;48.860;9.624;2023-12-29T17:41:24;1.5;;;1.6;;
22515;SDS011;11424;48.860;9.624;2023-12-29T17:46:24;1.7;;;1.8;;
22515;SDS011;11424;48.860;9.624;2023-12-29T17:51:24;2.5;;;2.7;;
22515;SDS011;11424;48.860;9.624;2023-12-29T17:56:24;3.8;;;4.1;;
22515;SDS011;11424;48.860;9.624;2023-12-29T18:01:24;3.1;;;3.4;;
22515;SDS011;11424;48.860;9.624;2023-12-29T18:06:24;3;;;3.2;;
22515;SDS011;11424;48.860;9.624;2023-12-29T18:11:24;2;;;2.1;;
22515;SDS011;11424;48.860;9.624;2023-12-29T18:16:24;1.7;;;1.8;;
22515;SDS011;11424;48.860;9.624;2023-12-29T18:21:24;1.3;;;1.4;;
22515;SDS011;11424;48.860;9.624;2023-12-29T18:26:24;1.5;;;1.6;;
22515;SDS011;11424;48.860;9.624;2023-12-29T18:31:24;1.4;;;1.5;;
22515;SDS011;11424;48.860;9.624;2023-12-29T18:36:24;1.4;;;1.5;;
22515;SDS011;11424;48.860;9.624;2023-12-29T18:41:24;1.2;;;1.2;;
22515;SDS011;11424;48.860;9.624;2023-12-29T18:46:24;1.4;;;1.6;;
22515;SDS011;11424;48.860;9.624;2023-12-29T18:51:24;1.4;;;1.5;;
22515;SDS011;11424;48.860;9.624;2023-12-29T18:56:24;1.5;;;1.6;;
22515;SDS011;11424;48.860;9.624;2023-12-29T19:01:24;1.5;;;1.6;;
22515;SDS011;11424;48.860;9.624;2023-12-29T19:06:24;1.4;;;1.5;;
22515;SDS011;11424;48.860;9.624;2023-12-29T19:11:24;1.4;;;1.5;;
22515;SDS011;11424;48.860;9.624;2023-12-29T19:16:24;1.8;;;1.9;;
22515;SDS011;11424;48.860;9.624;2023-12-29T19:21:24;2.5;;;2.7;;
22515;SDS011;11424;48.860;9.624;2023-12-29T19:26:24;2.5;;;2.8;;
22515;SDS011;11424;48.860;9.624;2023-12-29T19:31:24;2.2;;;2.4;;
22515;SDS011;11424;48.860;9.624;2023-12-29T19:36:24;2.5;;;2.7;;
22515;SDS011;11424;48.860;9.624;2023-12-29T19:41:24;2.6;;;3.9;;
22515;SDS011;11424;48.860;9.624;2023-12-29T19:46:24;2.9;;;3.2;;
22515;SDS011;11424;48.860;9.624;2023-12-29T19:51:24;2.5;;;2.7;;
22515;SDS011;11424;48.860;9.624;2023-12-29T19:56:24;2.2;;;2.4;;
22515;SDS011;11424;48.860;9.624;2023-12-29T20:01:24;2.7;;;3;;
22515;SDS011;11424;48.860;9.624;2023-12-29T20:06:24;2.2;;;2.4;;
22515;SDS011;11424;48.860;9.624;2023-12-29T20:11:24;3;;;3.3;;
22515;SDS011;11424;48.860;9.624;2023-12-29T20:16:24;2.4;;;2.6;;
22515;SDS011;11424;48.860;9.624;2023-12-29T20:21:24;2.2;;;2.4;;
22515;SDS011;11424;48.860;9.624;2023-12-29T20:26:24;3;;;3.2;;
22515;SDS011;11424;48.860;9.624;2023-12-29T20:31:24;2.8;;;3.2;;
22515;SDS011;11424;48.860;9.624;2023-12-29T20:36:24;3.1;;;3.4;;
22515;SDS011;11424;48.860;9.624;2023-12-29T20:41:24;2.4;;;2.6;;
22515;SDS011;11424;48.860;9.624;2023-12-29T20:46:24;2.5;;;2.8;;
22515;SDS011;11424;48.860;9.624;2023-12-29T20:51:24;3.2;;;3.6;;
22515;SDS011;11424;48.860;9.624;2023-12-29T20:56:24;2.6;;;2.8;;
22515;SDS011;11424;48.860;9.624;2023-12-29T21:01:24;2.3;;;2.5;;
22515;SDS011;11424;48.860;9.624;2023-12-29T21:06:24;2.2;;;2.9;;
22515;SDS011;11424;48.860;9.624;2023-12-29T21:11:24;2.7;;;2.9;;
22515;SDS011;11424;48.860;9.624;2023-12-29T21:16:24;2.1;;;2.3;;
22515;SDS011;11424;48.860;9.624;2023-12-29T21:21:24;2.4;;;2.7;;
22515;SDS011;11424;48.860;9.624;2023-12-29T21:26:24;3.7;;;5.2;;
22515;SDS011;11424;48.860;9.624;2023-12-29T21:31:24;9.3;;;18.9;;
22515;SDS011;11424;48.860;9.624;2023-12-29T21:36:24;6.8;;;13.4;;
22515;SDS011;11424;48.860;9.624;2023-12-29T21:41:24;4.2;;;7.1;;
22515;SDS011;11424;48.860;9.624;2023-12-29T21:46:24;3.8;;;4.8;;
22515;SDS011;11424;48.860;9.624;2023-12-29T21:51:24;3.3;;;4.1;;
22515;SDS011;11424;48.860;9.624;2023-12-29T21:56:24;4.5;;;5.8;;
22515;SDS011;11424;48.860;9.624;2023-12-29T22:01:25;5.1;;;6.4;;
22515;SDS011;11424;48.860;9.624;2023-12-29T22:06:24;4.9;;;6.5;;
22515;SDS011;11424;48.860;9.624;2023-12-29T22:11:24;4;;;4.7;;
22515;SDS011;11424;48.860;9.624;2023-12-29T22:16:24;5.2;;;8.6;;
22515;SDS011;11424;48.860;9.624;2023-12-29T22:21:24;3;;;4.5;;
22515;SDS011;11424;48.860;9.624;2023-12-29T22:26:24;4;;;6.2;;
22515;SDS011;11424;48.860;9.624;2023-12-29T22:31:24;3.8;;;5.4;;
22515;SDS011;11424;48.860;9.624;2023-12-29T22:36:24;4.7;;;6.8;;
22515;SDS011;11424;48.860;9.624;2023-12-29T22:41:24;3.3;;;4.8;;
22515;SDS011;11424;48.860;9.624;2023-12-29T22:46:24;2.8;;;3.2;;
22515;SDS011;11424;48.860;9.624;2023-12-29T22:51:24;2.3;;;2.5;;
22515;SDS011;11424;48.860;9.624;2023-12-29T22:56:24;2.2;;;2.4;;
22515;SDS011;11424;48.860;9.624;2023-12-29T23:01:24;2.1;;;2.3;;
22515;SDS011;11424;48.860;9.624;2023-12-29T23:06:24;2.3;;;2.7;;
22515;SDS011;11424;48.860;9.624;2023-12-29T23:11:25;2.5;;;2.7;;
22515;SDS011;11424;48.860;9.624;2023-12-29T23:16:24;2.2;;;2.4;;
22515;SDS011;11424;48.860;9.624;2023-12-29T23:21:24;2.1;;;2.3;;
22515;SDS011;11424;48.860;9.624;2023-12-29T23:26:24;2.2;;;2.5;;
22515;SDS011;11424;48.860;9.624;2023-12-29T23:31:24;1.7;;;1.8;;
22515;SDS011;11424;48.860;9.624;2023-12-29T23:36:24;1.9;;;2;;
22515;SDS011;11424;48.860;9.624;2023-12-29T23:41:24;1.8;;;2.1;;
22515;SDS011;11424;48.860;9.624;2023-12-29T23:46:24;1.6;;;1.7;;
22515;SDS011;11424;48.860;9.624;2023-12-29T23:51:25;1.6;;;1.8;;
22515;SDS011;11424;48.860;9.624;2023-12-29T23:56:24;1.7;;;1.8;;
